sensor_id;sensor_type;location;lat;lon;timestamp;pressure;altitude;pressure_sealevel;temperature;humidity
35226;BME280;21813;49.686;21.766;2024-01-06T00:01:50;97520.75;;;5.68;100.00
35226;BME280;21813;49.686;21.766;2024-01-06T00:04:16;97524.03;;;5.70;100.00
35226;BME280;21813;49.686;21.766;2024-01-06T00:06:42;97529.69;;;5.75;100.00
35226;BME280;21813;49.686;21.766;2024-01-06T00:09:08;97513.94;;;5.67;100.00
35226;BME280;21813;49.686;21.766;2024-01-06T00:11:33;97535.34;;;5.81;100.00
35226;BME280;21813;49.686;21.766;2024-01-06T00:13:59;97527.25;;;5.85;100.00
35226;BME280;21813;49.686;21.766;2024-01-06T00:16:25;97523.28;;;5.92;100.00
35226;BME280;21813;49.686;21.766;2024-01-06T00:18:51;97535.44;;;5.92;100.00
35226;BME280;21813;49.686;21.766;2024-01-06T00:21:17;97523.44;;;5.91;100.00
35226;BME280;21813;49.686;21.766;2024-01-06T00:23:46;97524.13;;;5.93;100.00
35226;BME280;21813;49.686;21.766;2024-01-06T00:26:27;97530.94;;;5.94;100.00
35226;BME280;21813;49.686;21.766;2024-01-06T00:29:10;97506.56;;;5.85;100.00
35226;BME280;21813;49.686;21.766;2024-01-06T00:31:38;97521.31;;;5.96;100.00
35226;BME280;21813;49.686;21.766;2024-01-06T00:37:05;97497.59;;;5.78;100.00
35226;BME280;21813;49.686;21.766;2024-01-06T00:42:12;97496.31;;;5.72;100.00
35226;BME280;21813;49.686;21.766;2024-01-06T00:47:39;97488.66;;;5.71;100.00
35226;BME280;21813;49.686;21.766;2024-01-06T00:50:26;97508.53;;;5.70;100.00
35226;BME280;21813;49.686;21.766;2024-01-06T00:53:12;97501.97;;;5.77;100.00
35226;BME280;21813;49.686;21.766;2024-01-06T00:55:52;97504.78;;;5.74;100.00
35226;BME280;21813;49.686;21.766;2024-01-06T01:01:27;97482.91;;;5.67;100.00
35226;BME280;21813;49.686;21.766;2024-01-06T01:04:07;97467.59;;;5.64;100.00
35226;BME280;21813;49.686;21.766;2024-01-06T01:18:39;97467.41;;;5.67;100.00
35226;BME280;21813;49.686;21.766;2024-01-06T01:28:07;97459.66;;;5.67;100.00
35226;BME280;21813;49.686;21.766;2024-01-06T01:30:50;97478.06;;;5.87;100.00
35226;BME280;21813;49.686;21.766;2024-01-06T01:33:26;97442.13;;;5.71;100.00
35226;BME280;21813;49.686;21.766;2024-01-06T01:35:55;97461.09;;;5.83;100.00
35226;BME280;21813;49.686;21.766;2024-01-06T01:38:38;97461.75;;;5.73;100.00
35226;BME280;21813;49.686;21.766;2024-01-06T01:41:18;97468.38;;;5.77;100.00
35226;BME280;21813;49.686;21.766;2024-01-06T01:46:57;97458.72;;;5.68;100.00
35226;BME280;21813;49.686;21.766;2024-01-06T01:53:31;97495.00;;;5.78;100.00
35226;BME280;21813;49.686;21.766;2024-01-06T01:56:08;97480.56;;;5.75;100.00
35226;BME280;21813;49.686;21.766;2024-01-06T01:58:40;97453.59;;;5.56;100.00
35226;BME280;21813;49.686;21.766;2024-01-06T02:01:27;97459.13;;;5.51;100.00
35226;BME280;21813;49.686;21.766;2024-01-06T02:04:17;97461.75;;;5.62;100.00
35226;BME280;21813;49.686;21.766;2024-01-06T02:06:51;97469.50;;;5.62;100.00
35226;BME280;21813;49.686;21.766;2024-01-06T02:09:25;97462.53;;;5.52;100.00
35226;BME280;21813;49.686;21.766;2024-01-06T02:12:19;97460.09;;;5.50;100.00
35226;BME280;21813;49.686;21.766;2024-01-06T02:15:10;97456.78;;;5.48;100.00
35226;BME280;21813;49.686;21.766;2024-01-06T02:17:52;97471.59;;;5.57;100.00
35226;BME280;21813;49.686;21.766;2024-01-06T02:20:18;97468.09;;;5.58;100.00
35226;BME280;21813;49.686;21.766;2024-01-06T02:22:53;97455.94;;;5.48;100.00
35226;BME280;21813;49.686;21.766;2024-01-06T02:25:19;97477.75;;;5.67;100.00
35226;BME280;21813;49.686;21.766;2024-01-06T02:27:59;97468.69;;;5.62;100.00
35226;BME280;21813;49.686;21.766;2024-01-06T02:30:28;97465.38;;;5.60;100.00
35226;BME280;21813;49.686;21.766;2024-01-06T02:33:11;97489.94;;;5.65;100.00
35226;BME280;21813;49.686;21.766;2024-01-06T02:35:53;97478.88;;;5.52;100.00
35226;BME280;21813;49.686;21.766;2024-01-06T02:38:19;97460.78;;;5.52;100.00
35226;BME280;21813;49.686;21.766;2024-01-06T02:40:55;97459.59;;;5.56;100.00
35226;BME280;21813;49.686;21.766;2024-01-06T02:43:30;97444.56;;;5.50;100.00
35226;BME280;21813;49.686;21.766;2024-01-06T02:46:23;97432.59;;;5.49;100.00
35226;BME280;21813;49.686;21.766;2024-01-06T02:49:09;97450.09;;;5.57;100.00
35226;BME280;21813;49.686;21.766;2024-01-06T02:51:38;97435.88;;;5.51;100.00
35226;BME280;21813;49.686;21.766;2024-01-06T02:54:04;97447.50;;;5.57;100.00
35226;BME280;21813;49.686;21.766;2024-01-06T02:56:47;97431.38;;;5.42;100.00
35226;BME280;21813;49.686;21.766;2024-01-06T02:59:31;97438.69;;;5.48;100.00
35226;BME280;21813;49.686;21.766;2024-01-06T03:02:23;97448.56;;;5.54;100.00
35226;BME280;21813;49.686;21.766;2024-01-06T03:07:39;97450.69;;;5.49;100.00
35226;BME280;21813;49.686;21.766;2024-01-06T03:10:10;97453.25;;;5.49;100.00
35226;BME280;21813;49.686;21.766;2024-01-06T03:12:39;97431.63;;;5.39;100.00
35226;BME280;21813;49.686;21.766;2024-01-06T03:15:07;97451.16;;;5.54;100.00
35226;BME280;21813;49.686;21.766;2024-01-06T03:17:33;97448.09;;;5.49;100.00
35226;BME280;21813;49.686;21.766;2024-01-06T03:20:00;97445.50;;;5.49;100.00
35226;BME280;21813;49.686;21.766;2024-01-06T03:22:25;97435.28;;;5.48;100.00
35226;BME280;21813;49.686;21.766;2024-01-06T03:24:53;97423.63;;;5.42;100.00
35226;BME280;21813;49.686;21.766;2024-01-06T03:27:19;97424.00;;;5.49;100.00
35226;BME280;21813;49.686;21.766;2024-01-06T03:29:46;97425.53;;;5.51;100.00
35226;BME280;21813;49.686;21.766;2024-01-06T03:32:18;97409.78;;;5.43;100.00
35226;BME280;21813;49.686;21.766;2024-01-06T03:34:45;97406.59;;;5.51;100.00
35226;BME280;21813;49.686;21.766;2024-01-06T03:37:14;97404.16;;;5.49;100.00
35226;BME280;21813;49.686;21.766;2024-01-06T03:40:39;97426.03;;;5.67;100.00
35226;BME280;21813;49.686;21.766;2024-01-06T03:43:28;97399.22;;;5.57;100.00
35226;BME280;21813;49.686;21.766;2024-01-06T03:47:10;97403.00;;;5.64;100.00
35226;BME280;21813;49.686;21.766;2024-01-06T03:49:55;97418.03;;;5.70;100.00
35226;BME280;21813;49.686;21.766;2024-01-06T03:53:17;97418.63;;;5.74;100.00
35226;BME280;21813;49.686;21.766;2024-01-06T04:03:28;97395.03;;;5.67;100.00
35226;BME280;21813;49.686;21.766;2024-01-06T04:06:49;97397.00;;;5.75;100.00
35226;BME280;21813;49.686;21.766;2024-01-06T04:13:21;97405.13;;;5.82;100.00
35226;BME280;21813;49.686;21.766;2024-01-06T04:15:56;97389.97;;;5.77;100.00
35226;BME280;21813;49.686;21.766;2024-01-06T04:18:24;97405.00;;;5.83;100.00
35226;BME280;21813;49.686;21.766;2024-01-06T04:21:14;97395.06;;;5.90;100.00
35226;BME280;21813;49.686;21.766;2024-01-06T04:24:00;97394.81;;;5.93;100.00
35226;BME280;21813;49.686;21.766;2024-01-06T04:26:40;97399.53;;;5.99;100.00
35226;BME280;21813;49.686;21.766;2024-01-06T04:29:50;97374.94;;;5.93;100.00
35226;BME280;21813;49.686;21.766;2024-01-06T04:32:18;97394.94;;;6.02;100.00
35226;BME280;21813;49.686;21.766;2024-01-06T04:34:58;97369.91;;;5.92;100.00
35226;BME280;21813;49.686;21.766;2024-01-06T04:37:26;97392.50;;;6.01;100.00
35226;BME280;21813;49.686;21.766;2024-01-06T04:40:05;97384.00;;;5.99;100.00
35226;BME280;21813;49.686;21.766;2024-01-06T04:42:52;97367.56;;;5.89;100.00
35226;BME280;21813;49.686;21.766;2024-01-06T04:45:22;97371.91;;;5.88;100.00
35226;BME280;21813;49.686;21.766;2024-01-06T04:47:57;97367.75;;;5.86;100.00
35226;BME280;21813;49.686;21.766;2024-01-06T04:50:27;97397.03;;;5.97;100.00
35226;BME280;21813;49.686;21.766;2024-01-06T04:53:16;97376.84;;;5.91;100.00
35226;BME280;21813;49.686;21.766;2024-01-06T04:56:07;97377.69;;;5.92;100.00
35226;BME280;21813;49.686;21.766;2024-01-06T04:58:47;97396.25;;;6.19;100.00
35226;BME280;21813;49.686;21.766;2024-01-06T05:01:31;97366.94;;;6.07;100.00
35226;BME280;21813;49.686;21.766;2024-01-06T05:04:26;97377.88;;;6.11;100.00
35226;BME280;21813;49.686;21.766;2024-01-06T05:06:53;97384.56;;;6.25;100.00
35226;BME280;21813;49.686;21.766;2024-01-06T05:09:19;97386.94;;;6.16;100.00
35226;BME280;21813;49.686;21.766;2024-01-06T05:12:03;97389.28;;;6.08;100.00
35226;BME280;21813;49.686;21.766;2024-01-06T05:14:52;97422.31;;;6.16;100.00
35226;BME280;21813;49.686;21.766;2024-01-06T05:17:21;97383.19;;;5.98;100.00
35226;BME280;21813;49.686;21.766;2024-01-06T05:20:08;97406.69;;;6.06;100.00
35226;BME280;21813;49.686;21.766;2024-01-06T05:22:42;97381.66;;;5.96;100.00
35226;BME280;21813;49.686;21.766;2024-01-06T05:25:10;97412.94;;;6.04;100.00
35226;BME280;21813;49.686;21.766;2024-01-06T05:27:54;97394.59;;;5.96;100.00
35226;BME280;21813;49.686;21.766;2024-01-06T05:30:28;97406.00;;;5.93;100.00
35226;BME280;21813;49.686;21.766;2024-01-06T06:06:18;97428.09;;;5.97;100.00
35226;BME280;21813;49.686;21.766;2024-01-06T06:09:10;97433.03;;;6.00;100.00
35226;BME280;21813;49.686;21.766;2024-01-06T06:11:39;97424.56;;;5.98;100.00
35226;BME280;21813;49.686;21.766;2024-01-06T06:14:20;97443.97;;;6.04;100.00
35226;BME280;21813;49.686;21.766;2024-01-06T06:16:45;97429.84;;;5.97;100.00
35226;BME280;21813;49.686;21.766;2024-01-06T06:19:24;97433.59;;;5.93;100.00
35226;BME280;21813;49.686;21.766;2024-01-06T06:21:50;97402.78;;;5.78;100.00
35226;BME280;21813;49.686;21.766;2024-01-06T06:24:23;97411.50;;;5.77;100.00
35226;BME280;21813;49.686;21.766;2024-01-06T06:26:52;97419.72;;;5.83;100.00
35226;BME280;21813;49.686;21.766;2024-01-06T06:29:46;97441.25;;;5.94;100.00
35226;BME280;21813;49.686;21.766;2024-01-06T06:32:27;97440.44;;;5.94;100.00
35226;BME280;21813;49.686;21.766;2024-01-06T06:34:57;97434.56;;;5.92;100.00
35226;BME280;21813;49.686;21.766;2024-01-06T06:37:26;97421.59;;;5.81;100.00
35226;BME280;21813;49.686;21.766;2024-01-06T06:39:52;97428.56;;;5.91;100.00
35226;BME280;21813;49.686;21.766;2024-01-06T06:42:29;97438.31;;;5.88;100.00
35226;BME280;21813;49.686;21.766;2024-01-06T06:44:54;97443.47;;;5.88;100.00
35226;BME280;21813;49.686;21.766;2024-01-06T06:47:33;97451.72;;;5.93;100.00
35226;BME280;21813;49.686;21.766;2024-01-06T06:49:59;97435.44;;;5.79;100.00
35226;BME280;21813;49.686;21.766;2024-01-06T06:52:42;97448.44;;;5.91;100.00
35226;BME280;21813;49.686;21.766;2024-01-06T06:55:08;97437.09;;;5.81;100.00
35226;BME280;21813;49.686;21.766;2024-01-06T06:57:36;97466.63;;;5.89;100.00
35226;BME280;21813;49.686;21.766;2024-01-06T07:00:02;97472.22;;;5.83;100.00
35226;BME280;21813;49.686;21.766;2024-01-06T07:02:35;97463.88;;;5.79;100.00
35226;BME280;21813;49.686;21.766;2024-01-06T07:05:01;97466.13;;;5.73;100.00
35226;BME280;21813;49.686;21.766;2024-01-06T07:07:44;97471.75;;;5.78;100.00
35226;BME280;21813;49.686;21.766;2024-01-06T07:10:17;97476.00;;;5.79;100.00
35226;BME280;21813;49.686;21.766;2024-01-06T07:12:52;97478.91;;;5.74;100.00
35226;BME280;21813;49.686;21.766;2024-01-06T07:15:18;97472.81;;;5.75;100.00
35226;BME280;21813;49.686;21.766;2024-01-06T07:17:53;97482.38;;;5.86;100.00
35226;BME280;21813;49.686;21.766;2024-01-06T07:20:27;97466.38;;;5.81;100.00
35226;BME280;21813;49.686;21.766;2024-01-06T07:22:54;97465.19;;;5.85;100.00
35226;BME280;21813;49.686;21.766;2024-01-06T07:25:40;97482.75;;;5.93;100.00
35226;BME280;21813;49.686;21.766;2024-01-06T07:28:08;97480.06;;;5.94;100.00
35226;BME280;21813;49.686;21.766;2024-01-06T07:30:47;97466.25;;;5.83;100.00
35226;BME280;21813;49.686;21.766;2024-01-06T07:33:46;97477.81;;;5.90;100.00
35226;BME280;21813;49.686;21.766;2024-01-06T07:36:12;97483.13;;;5.99;100.00
35226;BME280;21813;49.686;21.766;2024-01-06T07:38:39;97482.78;;;6.04;100.00
35226;BME280;21813;49.686;21.766;2024-01-06T07:41:06;97478.19;;;5.96;100.00
35226;BME280;21813;49.686;21.766;2024-01-06T07:43:37;97463.94;;;5.91;100.00
35226;BME280;21813;49.686;21.766;2024-01-06T07:46:04;97483.69;;;6.03;100.00
35226;BME280;21813;49.686;21.766;2024-01-06T07:48:33;97494.41;;;6.09;100.00
35226;BME280;21813;49.686;21.766;2024-01-06T07:50:59;97485.69;;;6.10;100.00
35226;BME280;21813;49.686;21.766;2024-01-06T07:53:27;97491.00;;;6.09;100.00
35226;BME280;21813;49.686;21.766;2024-01-06T07:55:52;97487.50;;;6.10;100.00
35226;BME280;21813;49.686;21.766;2024-01-06T07:58:20;97483.25;;;6.09;100.00
35226;BME280;21813;49.686;21.766;2024-01-06T08:00:47;97491.13;;;6.18;100.00
35226;BME280;21813;49.686;21.766;2024-01-06T08:03:14;97498.66;;;6.21;100.00
35226;BME280;21813;49.686;21.766;2024-01-06T08:05:41;97483.38;;;6.18;100.00
35226;BME280;21813;49.686;21.766;2024-01-06T08:08:08;97489.13;;;6.22;100.00
35226;BME280;21813;49.686;21.766;2024-01-06T08:10:34;97500.66;;;6.29;100.00
35226;BME280;21813;49.686;21.766;2024-01-06T08:13:02;97490.53;;;6.26;100.00
35226;BME280;21813;49.686;21.766;2024-01-06T08:15:27;97493.84;;;6.28;100.00
35226;BME280;21813;49.686;21.766;2024-01-06T08:17:53;97497.13;;;6.30;100.00
35226;BME280;21813;49.686;21.766;2024-01-06T08:20:19;97504.19;;;6.28;100.00
35226;BME280;21813;49.686;21.766;2024-01-06T08:22:46;97494.19;;;6.35;100.00
35226;BME280;21813;49.686;21.766;2024-01-06T08:25:12;97494.44;;;6.32;100.00
35226;BME280;21813;49.686;21.766;2024-01-06T08:27:41;97501.13;;;6.34;100.00
35226;BME280;21813;49.686;21.766;2024-01-06T08:30:08;97511.84;;;6.41;100.00
35226;BME280;21813;49.686;21.766;2024-01-06T08:32:36;97510.06;;;6.41;100.00
35226;BME280;21813;49.686;21.766;2024-01-06T08:35:02;97499.94;;;6.38;100.00
35226;BME280;21813;49.686;21.766;2024-01-06T08:37:29;97506.31;;;6.45;100.00
35226;BME280;21813;49.686;21.766;2024-01-06T08:39:55;97505.22;;;6.48;100.00
35226;BME280;21813;49.686;21.766;2024-01-06T08:42:25;97489.38;;;6.41;100.00
35226;BME280;21813;49.686;21.766;2024-01-06T08:44:51;97515.69;;;6.57;100.00
35226;BME280;21813;49.686;21.766;2024-01-06T08:47:18;97515.50;;;6.60;100.00
35226;BME280;21813;49.686;21.766;2024-01-06T08:49:50;97520.41;;;6.63;100.00
35226;BME280;21813;49.686;21.766;2024-01-06T08:52:18;97510.31;;;6.60;100.00
35226;BME280;21813;49.686;21.766;2024-01-06T08:54:49;97515.59;;;6.70;100.00
35226;BME280;21813;49.686;21.766;2024-01-06T08:57:26;97520.28;;;6.76;100.00
35226;BME280;21813;49.686;21.766;2024-01-06T08:59:52;97526.50;;;6.85;100.00
35226;BME280;21813;49.686;21.766;2024-01-06T09:02:19;97528.88;;;6.88;100.00
35226;BME280;21813;49.686;21.766;2024-01-06T09:04:46;97515.34;;;6.84;100.00
35226;BME280;21813;49.686;21.766;2024-01-06T09:07:16;97507.22;;;6.78;100.00
